Time;durP1;ratioP1;P1;durP2;ratioP2;P2;SDS_P1;SDS_P2;PMS_P1;PMS_P2;Temp;Humidity;BMP_temperature;BMP_pressure;BME280_temperature;BME280_humidity;BME280_pressure;Samples;Min_cycle;Max_cycle;Signal;HPM_P1;HPM_P2
2022/03/31 00:01:06;;;;;;;6.95;5.13;;;;;;;4.67;71.03;100169.63;4647718;30;20047;-75
2022/03/31 00:03:32;;;;;;;6.93;5.25;;;;;;;4.28;71.17;100111.84;4647950;30;20035;-75
2022/03/31 00:05:57;;;;;;;8.95;5.70;;;;;;;4.39;71.27;100129.22;4647686;30;20079;-74
2022/03/31 00:08:23;;;;;;;7.18;5.25;;;;;;;4.20;71.32;100096.06;4632605;30;20114;-75
2022/03/31 00:10:53;;;;;;;7.82;5.60;;;;;;;4.67;71.89;100167.88;4647972;30;20126;-75
2022/03/31 00:13:27;;;;;;;8.15;5.85;;;;;;;4.65;71.88;100159.47;4648068;30;20452;-75
2022/03/31 00:15:57;;;;;;;7.25;5.20;;;;;;;4.48;72.18;100128.78;4647903;30;20034;-75
2022/03/31 00:18:26;;;;;;;9.68;6.07;;;;;;;4.58;71.71;100142.75;4647959;30;20039;-76
2022/03/31 00:20:52;;;;;;;8.90;5.07;;;;;;;4.67;72.09;100152.53;4647805;30;20110;-75
2022/03/31 00:23:22;;;;;;;9.10;5.78;;;;;;;4.66;72.14;100158.56;4648584;30;20063;-75
2022/03/31 00:25:47;;;;;;;8.82;5.55;;;;;;;4.63;72.37;100156.16;4651204;30;20031;-73
2022/03/31 00:28:13;;;;;;;8.05;5.57;;;;;;;4.59;72.44;100154.66;4649525;30;20054;-76
2022/03/31 00:30:38;;;;;;;9.00;5.68;;;;;;;4.65;72.48;100163.75;4649902;30;20027;-75
2022/03/31 00:33:04;;;;;;;8.32;5.75;;;;;;;4.64;72.54;100157.00;4650906;30;20374;-75
2022/03/31 00:35:34;;;;;;;7.75;5.75;;;;;;;4.62;72.94;100154.47;4635217;30;20050;-75
2022/03/31 00:38:00;;;;;;;8.32;5.78;;;;;;;4.28;72.38;100110.13;4651121;30;20039;-75
2022/03/31 00:40:25;;;;;;;9.40;6.30;;;;;;;4.56;72.39;100157.38;4650772;30;20035;-76
2022/03/31 00:42:57;;;;;;;9.88;6.15;;;;;;;4.44;72.49;100145.19;4650785;30;20125;-74
2022/03/31 00:45:46;;;;;;;8.82;6.15;;;;;;;4.55;72.27;100164.22;4650673;30;20063;-74
2022/03/31 00:48:13;;;;;;;8.60;5.90;;;;;;;4.57;72.46;100166.69;4650575;30;20043;-79
2022/03/31 00:50:39;;;;;;;9.05;6.00;;;;;;;4.42;72.76;100132.44;4650678;30;20101;-75
2022/03/31 00:57:18;;;;;;;9.75;7.38;;;;;;;4.57;72.55;100153.91;4650904;30;20042;-77
2022/03/31 01:03:08;;;;;;;8.93;6.65;;;;;;;4.52;73.42;100155.84;4650454;30;20058;-75
2022/03/31 01:05:40;;;;;;;9.85;7.22;;;;;;;3.74;73.96;100034.41;4650351;30;20039;-75
2022/03/31 01:08:06;;;;;;;10.18;7.45;;;;;;;4.43;74.38;100154.59;4650479;30;20031;-75
2022/03/31 01:10:32;;;;;;;10.55;6.90;;;;;;;4.41;74.69;100145.31;4650315;30;20397;-73
2022/03/31 01:12:57;;;;;;;9.20;6.38;;;;;;;4.36;75.13;100143.00;4650445;30;20066;-75
2022/03/31 01:15:22;;;;;;;9.57;7.07;;;;;;;4.40;75.29;100146.22;4650279;30;20043;-74
2022/03/31 01:17:49;;;;;;;10.02;6.55;;;;;;;4.28;75.86;100125.47;4650159;30;20109;-74
2022/03/31 01:20:20;;;;;;;9.98;6.30;;;;;;;4.06;76.54;100086.50;4650406;30;20038;-75
2022/03/31 01:22:46;;;;;;;10.07;5.90;;;;;;;4.14;76.91;100099.75;4650127;30;20038;-76
2022/03/31 01:25:14;;;;;;;10.82;6.22;;;;;;;3.97;77.05;100084.41;4650295;30;20448;-76
2022/03/31 01:27:43;;;;;;;9.07;6.30;;;;;;;4.25;77.31;100129.91;4650099;30;20055;-74
2022/03/31 01:30:13;;;;;;;11.30;6.78;;;;;;;4.07;77.45;100105.22;4650021;30;20110;-75
2022/03/31 01:32:39;;;;;;;9.93;6.63;;;;;;;4.22;77.75;100137.69;4634572;30;20035;-75
2022/03/31 01:35:06;;;;;;;10.18;6.57;;;;;;;4.20;77.89;100124.16;4634113;30;20461;-74
2022/03/31 01:37:31;;;;;;;10.68;7.10;;;;;;;4.18;77.83;100126.81;4650032;30;20098;-75
2022/03/31 01:39:57;;;;;;;9.57;6.65;;;;;;;3.85;77.91;100082.44;4650033;30;20039;-75
2022/03/31 02:30:57;;;;;;;11.43;7.88;;;;;;;3.30;86.51;100102.81;4645756;30;20229;-74
2022/03/31 02:33:22;;;;;;;14.48;9.38;;;;;;;2.37;88.36;99966.69;4647647;30;20051;-74
2022/03/31 02:35:50;;;;;;;13.40;9.32;;;;;;;2.34;89.38;99969.34;4649087;30;20039;-74
2022/03/31 02:38:19;;;;;;;13.13;9.90;;;;;;;2.19;89.30;99958.09;4649217;30;20071;-74
2022/03/31 02:40:48;;;;;;;12.38;9.27;;;;;;;2.93;89.56;100088.28;4649054;30;20035;-75
2022/03/31 02:43:19;;;;;;;12.57;9.57;;;;;;;2.65;90.38;100050.41;4648768;30;20035;-75
2022/03/31 02:45:47;;;;;;;13.65;9.43;;;;;;;2.84;90.14;100087.78;4633063;30;20505;-74
2022/03/31 02:48:12;;;;;;;9.30;7.45;;;;;;;2.82;90.33;100099.78;4648803;30;20035;-74
2022/03/31 02:50:38;;;;;;;10.00;6.22;;;;;;;2.62;90.11;100070.94;4648768;30;20483;-74
2022/03/31 02:55:47;;;;;;;7.47;5.43;;;;;;;2.61;90.78;100098.13;4649101;30;20113;-74
2022/03/31 02:58:16;;;;;;;6.30;4.63;;;;;;;2.56;90.26;100095.78;4648748;30;20039;-74
2022/03/31 03:00:44;;;;;;;6.22;4.90;;;;;;;2.20;90.74;100052.28;4647179;30;20050;-75
2022/03/31 03:03:11;;;;;;;7.70;5.13;;;;;;;2.47;90.62;100091.09;4648624;30;20035;-74
2022/03/31 03:05:36;;;;;;;6.78;4.95;;;;;;;2.43;91.03;100076.78;4633426;30;20518;-75
2022/03/31 03:08:02;;;;;;;6.35;4.80;;;;;;;2.32;90.84;100063.66;4648751;30;20035;-74
2022/03/31 03:10:27;;;;;;;6.65;5.00;;;;;;;2.30;91.49;100070.56;4647425;30;20078;-74
2022/03/31 03:12:59;;;;;;;6.45;4.88;;;;;;;2.14;91.40;100060.16;4648748;30;20397;-74
2022/03/31 03:15:25;;;;;;;6.78;4.82;;;;;;;2.16;91.72;100065.19;4648794;30;20046;-74
2022/03/31 03:17:56;;;;;;;6.63;4.53;;;;;;;1.73;92.36;99998.16;4648632;30;20035;-74
2022/03/31 03:20:24;;;;;;;6.05;4.88;;;;;;;1.85;92.36;100019.75;4648414;30;20496;-74
2022/03/31 03:22:54;;;;;;;7.68;5.00;;;;;;;1.44;92.72;99972.16;4648635;30;20049;-73
2022/03/31 03:25:20;;;;;;;6.15;4.22;;;;;;;1.60;92.53;99997.00;4648517;30;20069;-74
2022/03/31 03:27:48;;;;;;;5.38;4.32;;;;;;;1.73;92.61;100032.09;4648297;30;20095;-74
2022/03/31 03:30:14;;;;;;;5.75;4.15;;;;;;;1.79;92.14;100051.38;4648603;30;20366;-74
2022/03/31 03:32:40;;;;;;;6.15;4.07;;;;;;;1.76;92.38;100053.22;4648437;30;20146;-74
2022/03/31 03:35:08;;;;;;;5.15;3.90;;;;;;;1.61;92.91;100032.56;4648239;30;20532;-74
2022/03/31 03:37:35;;;;;;;4.70;3.83;;;;;;;1.63;92.89;100033.34;4648339;30;20511;-74
2022/03/31 03:40:05;;;;;;;5.75;4.13;;;;;;;1.87;92.37;100063.78;4648082;30;20049;-74
2022/03/31 03:42:31;;;;;;;5.38;4.00;;;;;;;1.80;92.88;100050.50;4648104;30;20445;-74
2022/03/31 03:44:57;;;;;;;4.72;3.55;;;;;;;1.64;92.01;100029.06;4648462;30;20393;-74
2022/03/31 03:47:22;;;;;;;5.30;3.97;;;;;;;1.47;92.23;100008.53;4648534;30;20094;-73
2022/03/31 03:49:48;;;;;;;6.68;3.90;;;;;;;1.81;92.32;100079.31;4648118;30;20038;-74
2022/03/31 03:52:14;;;;;;;4.90;3.83;;;;;;;1.82;92.75;100080.97;4648242;30;20489;-76
2022/03/31 03:54:39;;;;;;;5.50;3.67;;;;;;;1.77;92.19;100072.69;4648198;30;20210;-74
2022/03/31 03:57:05;;;;;;;5.13;3.75;;;;;;;1.59;92.79;100051.34;4633693;30;20066;-74
2022/03/31 03:59:31;;;;;;;4.18;3.58;;;;;;;1.64;92.21;100062.97;4649897;30;20062;-74
2022/03/31 04:02:01;;;;;;;4.70;3.45;;;;;;;1.81;92.88;100090.34;4651695;30;20043;-74
2022/03/31 04:04:27;;;;;;;4.50;3.50;;;;;;;1.82;92.03;100086.91;4651238;30;20547;-74
2022/03/31 04:06:53;;;;;;;5.22;3.78;;;;;;;1.71;91.81;100068.66;4651329;30;20114;-74
2022/03/31 04:09:18;;;;;;;4.25;3.25;;;;;;;1.65;91.30;100051.91;4651436;30;20130;-75
2022/03/31 04:11:43;;;;;;;3.60;2.95;;;;;;;1.78;91.67;100080.28;4651327;30;20508;-74
2022/03/31 04:14:09;;;;;;;5.65;3.53;;;;;;;1.37;91.50;100018.22;4650016;30;20039;-74
2022/03/31 04:16:34;;;;;;;4.90;3.47;;;;;;;1.60;91.98;100050.44;4649836;30;20046;-74
2022/03/31 04:19:19;;;;;;;4.18;2.97;;;;;;;1.21;91.74;99989.19;4651007;30;20473;-74
2022/03/31 04:21:45;;;;;;;5.70;3.45;;;;;;;1.56;92.36;100081.97;4651053;30;20438;-74
2022/03/31 04:24:10;;;;;;;5.93;3.60;;;;;;;1.52;93.95;100081.25;4651120;30;20050;-74
2022/03/31 04:26:38;;;;;;;4.03;3.30;;;;;;;1.18;94.84;100041.00;4651017;30;20026;-74
2022/03/31 04:29:08;;;;;;;4.15;3.20;;;;;;;1.28;94.65;100066.91;4651032;30;20070;-74
2022/03/31 04:31:35;;;;;;;4.03;3.33;;;;;;;0.86;94.87;100027.72;4651080;30;20043;-74
2022/03/31 04:34:00;;;;;;;4.00;3.10;;;;;;;0.99;95.63;100048.47;4650752;30;20071;-74
2022/03/31 04:36:26;;;;;;;3.83;3.20;;;;;;;0.74;96.33;100020.56;4650726;30;20053;-74
2022/03/31 04:38:51;;;;;;;5.28;3.40;;;;;;;0.80;96.38;100042.38;4649776;30;20130;-73
2022/03/31 04:41:17;;;;;;;4.88;3.08;;;;;;;1.05;95.94;100095.72;4650766;30;20070;-75
2022/03/31 04:43:42;;;;;;;4.30;3.20;;;;;;;0.90;96.48;100078.47;4650786;30;20130;-74
2022/03/31 04:46:08;;;;;;;3.63;3.10;;;;;;;0.95;97.11;100077.41;4649732;30;20031;-82
2022/03/31 04:48:34;;;;;;;5.13;3.40;;;;;;;0.82;97.75;100056.69;4635439;30;20035;-73
2022/03/31 04:51:05;;;;;;;4.45;3.30;;;;;;;1.04;97.25;100089.81;4650556;30;20399;-74
2022/03/31 05:00:38;;;;;;;5.18;3.80;;;;;;;-0.44;97.81;99871.47;4649936;30;20062;-75
2022/03/31 05:03:04;;;;;;;5.57;3.60;;;;;;;0.93;98.84;100094.44;4650352;30;20477;-74
2022/03/31 05:06:05;;;;;;;5.57;3.70;;;;;;;0.93;99.13;100091.06;4650530;30;20035;-74
2022/03/31 05:09:21;;;;;;;4.45;3.40;;;;;;;-0.36;98.70;99894.03;4648815;30;20039;-74
2022/03/31 05:11:51;;;;;;;4.30;3.08;;;;;;;-0.35;98.53;99885.53;4650515;30;20101;-74
2022/03/31 05:17:11;;;;;;;4.32;3.13;;;;;;;0.37;98.46;100018.47;4649727;30;20051;-75
2022/03/31 05:19:38;;;;;;;4.82;3.30;;;;;;;-0.12;98.61;99932.97;4650403;30;20054;-75
2022/03/31 05:22:12;;;;;;;4.53;3.00;;;;;;;0.81;99.09;100092.34;4650114;30;20105;-74
2022/03/31 05:24:58;;;;;;;3.58;2.63;;;;;;;-0.17;99.01;99945.00;4634945;30;20043;-74
2022/03/31 05:31:36;;;;;;;4.30;2.90;;;;;;;-0.67;98.47;99881.53;4650012;30;20564;-75
2022/03/31 05:34:29;;;;;;;5.28;2.78;;;;;;;0.61;98.85;100094.72;4649616;30;20306;-76
2022/03/31 05:37:07;;;;;;;4.88;3.10;;;;;;;-0.66;98.83;99875.59;4649959;30;20497;-75
2022/03/31 05:39:41;;;;;;;5.68;3.38;;;;;;;0.65;99.44;100093.72;4650107;30;20042;-75
2022/03/31 05:42:07;;;;;;;4.50;2.70;;;;;;;0.42;98.91;100064.03;4649984;30;20121;-74
2022/03/31 05:44:32;;;;;;;4.25;2.88;;;;;;;0.18;99.09;100048.72;4649793;30;20078;-75
2022/03/31 05:46:58;;;;;;;3.05;2.28;;;;;;;0.39;99.27;100102.22;4648452;30;20050;-74
2022/03/31 05:49:42;;;;;;;4.40;2.85;;;;;;;0.08;100.00;100062.59;4649878;30;20101;-75
2022/03/31 05:52:07;;;;;;;3.95;2.63;;;;;;;-0.18;100.00;100027.06;4649450;30;20118;-75
2022/03/31 05:54:32;;;;;;;5.13;2.78;;;;;;;-0.16;100.00;100030.38;4649736;30;20170;-75
2022/03/31 05:56:58;;;;;;;4.53;3.05;;;;;;;0.06;100.00;100066.06;4649571;30;20046;-74
2022/03/31 05:59:23;;;;;;;3.72;2.70;;;;;;;0.22;100.00;100090.09;4648665;30;20039;-78
2022/03/31 06:01:51;;;;;;;5.15;3.28;;;;;;;-0.12;100.00;100040.38;4649551;30;20046;-75
2022/03/31 06:04:20;;;;;;;5.03;3.17;;;;;;;0.17;100.00;100085.13;4649690;30;20043;-74
2022/03/31 06:06:48;;;;;;;5.18;3.05;;;;;;;0.21;100.00;100096.88;4649309;30;20031;-75
2022/03/31 06:09:14;;;;;;;5.95;3.33;;;;;;;0.12;100.00;100093.78;4649431;30;20027;-74
2022/03/31 06:11:45;;;;;;;5.47;3.53;;;;;;;0.16;100.00;100100.41;4649330;30;20037;-79
2022/03/31 06:14:11;;;;;;;5.25;3.55;;;;;;;0.00;100.00;100069.63;4649225;30;20042;-75
2022/03/31 06:16:37;;;;;;;5.70;3.88;;;;;;;0.19;100.00;100098.59;4649405;30;20031;-74
2022/03/31 06:19:08;;;;;;;5.75;3.72;;;;;;;0.09;100.00;100093.88;4649210;30;20035;-76
2022/03/31 06:21:34;;;;;;;5.68;4.00;;;;;;;-0.38;100.00;100015.84;4648267;30;20030;-79
2022/03/31 06:24:03;;;;;;;5.78;3.92;;;;;;;-0.31;100.00;100031.69;4649304;30;20039;-80
2022/03/31 06:26:29;;;;;;;5.43;3.95;;;;;;;-0.05;100.00;100085.00;4648950;30;20493;-74
2022/03/31 06:28:55;;;;;;;5.63;4.10;;;;;;;0.02;100.00;100093.25;4649316;30;20397;-76
2022/03/31 06:31:22;;;;;;;5.75;4.35;;;;;;;0.04;100.00;100095.75;4647929;30;20042;-79
2022/03/31 06:33:48;;;;;;;7.60;4.60;;;;;;;-0.65;100.00;99987.09;4648817;30;20421;-75
2022/03/31 06:36:13;;;;;;;6.20;4.22;;;;;;;0.04;100.00;100100.81;4649081;30;20046;-75
2022/03/31 06:38:39;;;;;;;5.55;3.92;;;;;;;0.05;100.00;100098.22;4648831;30;20062;-74
2022/03/31 06:41:07;;;;;;;6.32;4.50;;;;;;;-0.16;100.00;100055.75;4648715;30;20031;-75
2022/03/31 06:43:37;;;;;;;7.03;4.13;;;;;;;-0.06;100.00;100072.34;4649030;30;20039;-74
2022/03/31 06:46:03;;;;;;;6.60;4.55;;;;;;;-0.16;100.00;100055.75;4648881;30;20043;-74
2022/03/31 06:48:30;;;;;;;6.72;5.00;;;;;;;0.14;100.00;100097.09;4649039;30;20027;-74
2022/03/31 06:50:56;;;;;;;6.47;4.60;;;;;;;0.03;100.00;100082.22;4648190;30;20039;-73
2022/03/31 06:53:25;;;;;;;8.38;4.63;;;;;;;0.15;100.00;100104.66;4649602;30;20389;-75
2022/03/31 06:55:50;;;;;;;6.22;4.72;;;;;;;-0.10;100.00;100064.03;4648633;30;20409;-76
2022/03/31 06:58:16;;;;;;;6.00;4.25;;;;;;;0.09;100.00;100094.69;4648603;30;20035;-75
2022/03/31 07:00:43;;;;;;;7.10;4.78;;;;;;;0.11;100.00;100102.28;4648957;30;20042;-74
2022/03/31 07:03:08;;;;;;;6.78;5.03;;;;;;;0.06;100.00;100082.13;4648724;30;20063;-76
2022/03/31 07:05:37;;;;;;;8.75;5.65;;;;;;;0.14;100.00;100086.94;4648604;30;20082;-72
2022/03/31 07:08:03;;;;;;;7.65;5.68;;;;;;;0.22;100.00;100096.00;4648727;30;20392;-74
2022/03/31 07:10:28;;;;;;;7.03;5.43;;;;;;;0.20;100.00;100087.59;4648121;30;20042;-78
2022/03/31 07:12:54;;;;;;;7.90;5.63;;;;;;;0.10;100.00;100068.47;4647601;30;20042;-77
2022/03/31 07:15:19;;;;;;;7.75;5.75;;;;;;;0.06;100.00;100050.81;4648477;30;20070;-79
2022/03/31 07:17:45;;;;;;;7.68;5.53;;;;;;;0.30;100.00;100095.75;4648540;30;20049;-76
2022/03/31 07:20:11;;;;;;;7.82;5.47;;;;;;;0.09;100.00;100059.16;4633133;30;20027;-77
2022/03/31 07:22:45;;;;;;;7.80;5.78;;;;;;;0.33;100.00;100088.03;4647149;30;20046;-78
2022/03/31 07:25:11;;;;;;;9.07;6.45;;;;;;;0.39;100.00;100094.59;4648072;30;20039;-75
2022/03/31 07:27:36;;;;;;;8.18;6.00;;;;;;;0.42;100.00;100097.03;4648487;30;20035;-76
2022/03/31 07:30:02;;;;;;;7.93;5.70;;;;;;;0.34;100.00;100076.16;4648130;30;20031;-76
2022/03/31 07:32:28;;;;;;;7.60;5.32;;;;;;;0.14;100.00;100042.09;4648054;30;20125;-76
2022/03/31 07:34:53;;;;;;;9.68;5.63;;;;;;;0.16;100.00;100047.94;4648248;30;20058;-76
2022/03/31 07:37:18;;;;;;;7.55;5.53;;;;;;;0.44;100.00;100093.56;4648209;30;20039;-77
2022/03/31 07:39:45;;;;;;;7.15;5.47;;;;;;;0.46;100.00;100094.34;4648165;30;20500;-77
2022/03/31 07:42:12;;;;;;;7.63;5.32;;;;;;;0.32;100.00;100067.75;4648233;30;20038;-77
2022/03/31 07:44:37;;;;;;;6.93;5.30;;;;;;;0.45;100.00;100090.16;4648236;30;20043;-76
2022/03/31 07:47:05;;;;;;;6.55;4.72;;;;;;;0.56;100.00;100097.41;4648337;30;20031;-76
2022/03/31 07:49:31;;;;;;;6.70;5.13;;;;;;;0.35;100.00;100062.56;4648194;30;20122;-76
2022/03/31 07:51:59;;;;;;;7.07;5.00;;;;;;;0.30;100.00;100036.50;4648224;30;20130;-76
2022/03/31 07:54:24;;;;;;;6.70;4.75;;;;;;;0.64;100.00;100092.91;4648045;30;20035;-77
2022/03/31 07:56:50;;;;;;;6.50;4.47;;;;;;;0.58;100.00;100073.59;4648074;30;20499;-75
2022/03/31 07:59:21;;;;;;;6.13;4.45;;;;;;;0.73;100.00;100090.03;4647308;30;20122;-77
2022/03/31 08:01:47;;;;;;;5.70;4.22;;;;;;;0.74;100.00;100085.78;4648098;30;20405;-76
2022/03/31 08:04:13;;;;;;;5.95;4.22;;;;;;;0.81;100.00;100093.16;4647966;30;20050;-75
2022/03/31 08:06:39;;;;;;;6.10;4.38;;;;;;;0.78;100.00;100079.72;4648177;30;20039;-82
2022/03/31 08:19:29;;;;;;;6.75;4.85;;;;;;;1.03;100.00;100087.31;4647340;30;20150;-85
2022/03/31 08:21:56;;;;;;;6.38;4.80;;;;;;;1.08;100.00;100085.44;4647852;30;20090;-85
2022/03/31 08:24:21;;;;;;;6.82;5.40;;;;;;;1.07;100.00;100084.59;4647813;30;20046;-85
2022/03/31 08:26:46;;;;;;;7.05;5.15;;;;;;;1.10;100.00;100096.41;4648088;30;20114;-85
2022/03/31 08:29:12;;;;;;;6.60;4.93;;;;;;;1.09;100.00;100089.66;4650361;30;20192;-84
2022/03/31 08:31:38;;;;;;;6.78;5.25;;;;;;;0.93;100.00;100063.09;4658297;30;20121;-83
2022/03/31 08:34:05;;;;;;;6.60;4.80;;;;;;;1.07;100.00;100092.22;4655600;30;20051;-83
2022/03/31 08:36:30;;;;;;;7.13;4.95;;;;;;;0.83;100.00;100044.81;4635512;30;20062;-80
2022/03/31 08:39:15;;;;;;;8.32;5.53;;;;;;;0.73;100.00;100015.53;4646887;30;20082;-83
2022/03/31 08:41:47;;;;;;;7.07;4.80;;;;;;;1.05;100.00;100052.50;4647717;30;20042;-84
2022/03/31 08:44:14;;;;;;;6.72;5.05;;;;;;;1.33;100.00;100076.03;4648667;30;20121;-83
2022/03/31 08:46:39;;;;;;;6.68;4.80;;;;;;;1.15;100.00;100031.75;4650995;30;20031;-80
2022/03/31 08:49:07;;;;;;;6.72;5.03;;;;;;;1.05;100.00;100024.53;4650280;30;20481;-78
2022/03/31 08:51:38;;;;;;;6.18;4.95;;;;;;;1.31;100.00;100049.00;4664277;30;20038;-79
2022/03/31 08:54:09;;;;;;;6.80;4.80;;;;;;;1.36;100.00;100047.94;4667396;30;20026;-76
2022/03/31 08:56:35;;;;;;;6.70;4.93;;;;;;;1.35;100.00;100031.00;4667623;30;20034;-80
2022/03/31 08:59:00;;;;;;;7.05;4.88;;;;;;;1.37;100.00;100013.97;4667571;30;20041;-84
2022/03/31 09:54:57;;;;;;;5.80;4.18;;;;;;;2.14;96.74;100039.78;5416286;25;20066;-78
2022/03/31 09:57:33;;;;;;;5.70;3.88;;;;;;;2.49;95.80;100089.28;4666432;30;20050;-75
2022/03/31 10:00:06;;;;;;;5.60;4.00;;;;;;;2.44;96.09;100059.78;4666783;30;20436;-78
2022/03/31 10:02:35;;;;;;;5.82;4.00;;;;;;;2.20;96.31;100015.78;4666358;30;20046;-81
2022/03/31 10:05:08;;;;;;;6.20;4.40;;;;;;;2.54;96.28;100048.31;4667264;30;20447;-81
2022/03/31 10:44:11;;;;;;;5.22;3.92;;;;;;;3.35;92.27;100066.00;3447151;28;20138;-87
2022/03/31 10:47:11;;;;;;;5.22;3.90;;;;;;;3.50;91.66;100074.66;4664691;30;20291;-85
2022/03/31 10:53:08;;;;;;;5.00;3.67;;;;;;;2.55;91.08;99910.63;4614429;30;20131;-89
2022/03/31 10:55:50;;;;;;;5.25;3.45;;;;;;;3.19;91.44;100001.25;4613071;31;20119;-84
2022/03/31 10:59:12;;;;;;;4.80;3.53;;;;;;;3.65;91.31;100073.97;4613109;31;20079;-85
2022/03/31 11:01:40;;;;;;;4.50;3.70;;;;;;;2.45;90.36;99898.34;4570959;31;20078;-85
2022/03/31 11:45:26;;;;;;;4.88;3.38;;;;;;;4.38;87.21;100041.50;4662478;30;20065;-77
2022/03/31 11:48:35;;;;;;;4.60;3.30;;;;;;;4.41;87.74;100048.16;4665340;30;20053;-86
2022/03/31 12:05:22;;;;;;;4.07;3.55;;;;;;;3.88;89.73;100038.84;4646193;30;20054;-75
2022/03/31 12:25:21;;;;;;;4.63;3.88;;;;;;;3.65;89.17;99961.63;4650929;30;20051;-74
2022/03/31 12:31:52;;;;;;;4.30;3.55;;;;;;;4.16;88.89;100020.47;4655151;30;20420;-73
2022/03/31 13:03:53;;;;;;;4.70;4.20;;;;;;;4.06;88.53;100027.75;5204335;25;20058;-84
2022/03/31 13:06:19;;;;;;;4.75;3.88;;;;;;;3.78;88.60;100000.16;4701292;30;20120;-79
2022/03/31 13:08:47;;;;;;;4.95;4.00;;;;;;;3.86;89.18;100025.34;4702251;30;20122;-74
2022/03/31 13:11:13;;;;;;;6.05;4.72;;;;;;;3.71;89.67;100025.16;4702169;30;20041;-78
2022/03/31 13:13:42;;;;;;;5.82;4.68;;;;;;;3.06;89.55;99932.13;4702997;30;20037;-85
2022/03/31 13:16:08;;;;;;;5.85;4.43;;;;;;;3.24;89.95;99965.31;4702005;30;20494;-82
2022/03/31 13:24:52;;;;;;;5.93;4.78;;;;;;;3.28;91.75;99954.91;4648382;30;20615;-84
2022/03/31 13:41:05;;;;;;;5.35;4.30;;;;;;;2.63;90.99;99817.69;4648409;30;20546;-84
2022/03/31 13:53:56;;;;;;;4.45;3.85;;;;;;;2.80;90.45;99818.56;4647815;30;20559;-84
2022/03/31 13:56:58;;;;;;;4.13;3.35;;;;;;;3.26;91.00;99880.16;4647701;30;20043;-84
2022/03/31 14:06:57;;;;;;;4.50;3.70;;;;;;;4.02;90.66;99998.13;4644080;30;20627;-89
2022/03/31 14:09:37;;;;;;;4.47;3.45;;;;;;;3.12;90.07;99841.72;4647472;30;20062;-89
2022/03/31 15:46:22;;;;;;;1.60;1.50;;;;;;;4.08;84.91;99989.34;4699728;30;20086;-88
2022/03/31 15:48:48;;;;;;;1.80;1.70;;;;;;;3.98;85.38;99999.19;4681760;30;20070;-88
2022/03/31 16:01:08;;;;;;;2.03;1.83;;;;;;;3.59;86.24;99997.66;4703175;30;20053;-76
2022/03/31 16:11:00;;;;;;;2.10;1.90;;;;;;;3.51;87.15;100002.28;4703010;30;20099;-86
2022/03/31 16:13:40;;;;;;;2.97;1.75;;;;;;;2.44;86.17;99821.09;4702656;30;20038;-85
2022/03/31 16:23:52;;;;;;;2.17;1.98;;;;;;;3.57;86.80;100004.56;4715388;25;20054;-84
2022/03/31 16:26:20;;;;;;;2.15;1.80;;;;;;;3.38;86.55;99978.25;4668145;30;20042;-83
2022/03/31 16:28:48;;;;;;;2.35;1.98;;;;;;;3.36;86.36;99986.00;4668087;30;20089;-80
2022/03/31 16:31:14;;;;;;;1.98;1.77;;;;;;;3.37;86.88;99995.28;4667707;30;20038;-75
2022/03/31 16:51:53;;;;;;;2.22;1.73;;;;;;;2.90;86.46;99926.06;4821615;25;20062;-77
2022/03/31 17:33:08;;;;;;;2.45;2.05;;;;;;;2.53;86.44;99991.41;5209409;25;20065;-86
2022/03/31 17:35:41;;;;;;;2.72;2.10;;;;;;;2.81;87.38;100033.56;4701498;30;20037;-85
2022/03/31 17:38:12;;;;;;;3.05;2.60;;;;;;;2.83;87.82;100041.97;4701394;30;20100;-87
2022/03/31 17:40:44;;;;;;;2.92;2.33;;;;;;;2.21;86.43;99943.56;4701290;30;20029;-86
2022/03/31 17:46:41;;;;;;;3.05;2.25;;;;;;;2.74;86.91;100043.19;4701455;30;20041;-87
2022/03/31 17:53:15;;;;;;;2.80;2.40;;;;;;;2.63;86.87;100049.66;4701114;30;20057;-85
2022/03/31 17:55:41;;;;;;;;;;;;;;;2.58;86.83;100043.03;4701536;30;20037;-88
2022/03/31 18:08:28;;;;;;;2.93;2.10;;;;;;;2.71;86.65;100057.78;4647884;30;20144;-87
2022/03/31 18:10:56;;;;;;;2.85;2.15;;;;;;;1.72;86.66;99905.72;4647509;30;20049;-85
2022/03/31 18:13:27;;;;;;;2.83;2.17;;;;;;;1.48;86.26;99873.66;4647447;30;20085;-89
2022/03/31 18:16:23;;;;;;;2.38;1.95;;;;;;;2.62;86.14;100059.00;4647377;30;20046;-89
2022/03/31 18:49:14;;;;;;;3.80;2.60;;;;;;;2.25;89.79;100091.09;4687832;30;20080;-87
2022/03/31 19:48:51;;;;;;;7.68;5.32;;;;;;;-0.80;98.98;99933.47;4648019;30;20062;-82
2022/03/31 20:04:58;;;;;;;7.68;5.97;;;;;;;0.42;99.73;100146.13;4612482;31;20213;-81
2022/03/31 20:31:53;;;;;;;7.82;6.30;;;;;;;0.40;100.00;100160.59;4627918;30;20125;-77
2022/03/31 20:34:28;;;;;;;7.68;6.45;;;;;;;0.33;100.00;100171.00;4647852;30;20521;-77
2022/03/31 20:41:36;;;;;;;7.85;6.35;;;;;;;0.17;100.00;100163.84;4644988;30;20070;-81
2022/03/31 20:44:03;;;;;;;9.23;7.05;;;;;;;-0.04;100.00;100131.50;4634097;30;20063;-78
2022/03/31 20:46:29;;;;;;;8.73;6.65;;;;;;;0.09;100.00;100159.88;4633897;31;20039;-78
2022/03/31 20:48:56;;;;;;;8.05;6.18;;;;;;;-0.04;100.00;100147.56;4633945;31;20040;-82
2022/03/31 20:51:21;;;;;;;8.27;7.13;;;;;;;-0.22;100.00;100119.38;4633778;31;20098;-81
2022/03/31 20:53:47;;;;;;;8.75;7.32;;;;;;;0.07;100.00;100175.16;4633653;31;20118;-79
2022/03/31 20:56:13;;;;;;;10.10;8.05;;;;;;;-0.09;100.00;100153.66;4633830;31;20043;-77
2022/03/31 20:58:39;;;;;;;9.80;8.13;;;;;;;0.06;100.00;100170.97;4633653;31;20378;-80
2022/03/31 21:01:05;;;;;;;10.50;8.57;;;;;;;-0.18;100.00;100129.41;4633812;31;20048;-77
2022/03/31 21:03:30;;;;;;;10.68;9.27;;;;;;;-0.24;100.00;100127.03;4633592;31;20035;-78
2022/03/31 21:05:55;;;;;;;11.63;9.50;;;;;;;0.00;100.00;100171.16;4633761;31;20047;-79
2022/03/31 21:08:45;;;;;;;12.07;10.48;;;;;;;-0.02;100.00;100171.19;4633426;31;20397;-80
2022/03/31 21:15:06;;;;;;;13.23;10.63;;;;;;;0.04;100.00;100179.50;4633592;31;20577;-77
2022/03/31 23:46:48;;;;;;;12.40;8.90;;;;;;;-0.96;100.00;100301.41;4696326;30;20135;-81
2022/03/31 23:49:14;;;;;;;10.60;7.90;;;;;;;-2.15;100.00;100101.66;4699638;30;20046;-80
2022/03/31 23:51:47;;;;;;;9.95;7.70;;;;;;;-2.27;100.00;100088.44;4698463;30;20542;-80
2022/03/31 23:54:53;;;;;;;10.85;7.65;;;;;;;-0.98;100.00;100312.47;4698414;30;20044;-80
